Data for 08/05/2010

Time Sea-Level Adjusted Pressure Absolute Pressure Temperature Relative Humidity Dew Point   
(mb) (inHg) (mb) (inHg) (C) (F) (%) (C) (F)
00:05 1023 30.21 853 25.19 16.7 62 65 10.1 50.2
00:10 1023 30.21 853 25.19 16.6 61.9 65 10.1 50.2
00:15 1023 30.21 853 25.19 16.6 61.8 65 10.1 50.2
00:20 1023 30.21 853 25.19 16.5 61.6 66 10.2 50.3
00:25 1023 30.21 853 25.19 16.3 61.4 67 10.1 50.3
00:30 1023 30.21 853 25.19 16.2 61.1 67 10.2 50.4
00:35 1023 30.21 853 25.19 16 60.7 68 10.1 50.3
00:40 1023 30.21 853 25.19 15.9 60.6 68 10.1 50.1
00:45 1023 30.21 852 25.16 16 60.7 68 10.1 50.1
00:50 1023 30.21 852 25.16 15.9 60.7 68 10 50.1
00:55 1023 30.21 852 25.16 15.9 60.5 68 10 50.1
01:00 1023 30.21 852 25.16 15.8 60.4 68 10 50.1
01:05 1023 30.21 852 25.16 15.7 60.3 68 10 50
01:10 1023 30.21 853 25.19 15.7 60.3 68 10 49.9
01:15 1023 30.21 853 25.19 15.7 60.3 68 9.9 49.8
01:20 1023 30.21 853 25.19 15.8 60.5 68 9.9 49.8
01:25 1023 30.21 853 25.19 15.8 60.5 68 9.9 49.9
01:30 1023 30.21 853 25.19 15.8 60.4 68 9.9 49.8
01:35 1024 30.24 853 25.19 15.7 60.3 68 9.9 49.8
01:40 1023 30.21 853 25.19 15.7 60.3 68 9.8 49.7
01:45 1023 30.21 853 25.19 15.7 60.2 68 9.8 49.7
01:50 1023 30.21 853 25.19 15.6 60.1 69 9.9 49.9
01:55 1023 30.21 853 25.19 15.4 59.7 69 9.8 49.7
02:00 1023 30.21 853 25.19 15.4 59.7 69 9.8 49.7
02:05 1023 30.21 853 25.19 15.4 59.6 69 9.8 49.7
02:10 1023 30.21 853 25.19 15.3 59.5 69 9.8 49.6
02:15 1023 30.21 852 25.16 15.2 59.4 70 9.8 49.7
02:20 1023 30.21 852 25.16 15.1 59.2 70 9.8 49.6
02:25 1023 30.21 852 25.16 15.1 59.1 70 9.8 49.6
02:30 1023 30.21 852 25.16 15 59.1 70 9.7 49.5
02:35 1023 30.21 852 25.16 15.1 59.1 69 9.6 49.3
02:40 1023 30.21 852 25.16 15.2 59.3 69 9.6 49.3
02:45 1023 30.21 852 25.16 15.2 59.4 69 9.6 49.2
02:50 1023 30.21 852 25.16 15.3 59.5 68 9.6 49.2
02:55 1023 30.21 852 25.16 15.4 59.7 68 9.6 49.2
03:00 1022 30.18 852 25.16 15.3 59.6 68 9.5 49.1
03:05 1022 30.18 852 25.16 15.4 59.7 68 9.5 49.2
03:10 1023 30.21 852 25.16 15.4 59.8 68 9.6 49.2
03:15 1023 30.21 852 25.16 15.4 59.8 68 9.6 49.2
03:20 1023 30.21 852 25.16 15.5 59.9 67 9.5 49.2
03:25 1023 30.21 852 25.16 15.5 60 67 9.5 49.1
03:30 1023 30.21 852 25.16 15.5 59.9 67 9.5 49.1
03:35 1022 30.18 852 25.16 15.5 59.9 67 9.5 49.1
03:40 1022 30.18 851 25.13 15.5 59.8 67 9.4 49
03:45 1022 30.18 851 25.13 15.4 59.8 67 9.5 49.1
03:50 1022 30.18 852 25.16 15.3 59.6 68 9.5 49.1
03:55 1022 30.18 851 25.13 15.2 59.3 68 9.5 49
04:00 1022 30.18 851 25.13 15.2 59.3 68 9.4 49
04:05 1022 30.18 851 25.13 15.3 59.5 67 9.3 48.8
04:10 1022 30.18 852 25.16 15.5 59.9 67 9.4 48.9
04:15 1023 30.21 852 25.16 15.5 59.8 67 9.5 49.1
04:20 1023 30.21 852 25.16 15.3 59.6 67 9.4 48.9
04:25 1023 30.21 852 25.16 15.2 59.4 68 9.5 49
04:30 1023 30.21 852 25.16 15.1 59.2 68 9.3 48.8
04:35 1023 30.21 852 25.16 15.1 59.2 67 9.2 48.5
04:40 1023 30.21 852 25.16 15.2 59.4 67 9.3 48.7
04:45 1023 30.21 852 25.16 15.2 59.3 68 9.3 48.7
04:50 1023 30.21 852 25.16 15.1 59.2 67 9.2 48.5
04:55 1023 30.21 852 25.16 15.2 59.3 67 9.2 48.6
05:00 1023 30.21 852 25.16 15.1 59.2 68 9.3 48.7
05:05 1023 30.21 852 25.16 15 59.1 68 9.3 48.7
05:10 1023 30.21 852 25.16 14.9 58.7 69 9.3 48.8
05:15 1023 30.21 852 25.16 14.7 58.5 70 9.3 48.7
05:20 1023 30.21 852 25.16 14.6 58.2 71 9.3 48.8
05:25 1023 30.21 852 25.16 14.5 58 71 9.2 48.6
05:30 1023 30.21 852 25.16 14.5 58.1 70 9.2 48.5
05:35 1022 30.18 852 25.16 14.7 58.4 69 9.1 48.4
05:40 1022 30.18 852 25.16 14.7 58.4 69 9.2 48.5
05:45 1022 30.18 852 25.16 14.7 58.4 69 9.2 48.5
05:50 1022 30.18 852 25.16 14.6 58.3 70 9.2 48.6
05:55 1022 30.18 852 25.16 14.6 58.2 70 9.2 48.6
06:00 1022 30.18 852 25.16 14.4 57.9 71 9.3 48.7
06:05 1022 30.18 852 25.16 14.3 57.7 71 9.2 48.6
06:10 1023 30.21 852 25.16 14.4 57.8 71 9.1 48.4
06:15 1023 30.21 852 25.16 14.4 57.9 70 9.1 48.4
06:20 1023 30.21 852 25.16 14.4 57.8 70 9.1 48.3
06:25 1023 30.21 852 25.16 14.4 57.9 70 9 48.2
06:30 1023 30.21 852 25.16 14.4 57.9 70 9 48.1
06:35 1023 30.21 852 25.16 14.5 58.1 69 9 48.2
06:40 1023 30.21 852 25.16 14.5 58.2 69 9 48.2
06:45 1022 30.18 852 25.16 14.6 58.2 69 8.9 48.1
06:50 1022 30.18 852 25.16 14.6 58.3 69 9 48.2
06:55 1022 30.18 852 25.16 14.6 58.3 69 9 48.1
07:00 1022 30.18 852 25.16 14.6 58.3 69 9.1 48.3
07:05 1022 30.18 852 25.16 14.6 58.3 69 9 48.2
07:10 1022 30.18 852 25.16 14.7 58.4 69 9 48.3
07:15 1022 30.18 852 25.16 14.7 58.5 69 9.2 48.5
07:20 1022 30.18 852 25.16 14.8 58.6 69 9.2 48.5
07:25 1022 30.18 852 25.16 14.7 58.5 69 9.1 48.3
07:30 1022 30.18 852 25.16 14.8 58.6 68 9.1 48.4
07:35 1022 30.18 852 25.16 15 59.1 67 9.1 48.4
07:40 1022 30.18 852 25.16 15.3 59.5 66 9 48.2
07:45 1022 30.18 852 25.16 15.5 60 65 9 48.2
07:50 1023 30.21 852 25.16 15.7 60.2 65 9.2 48.5
07:55 1023 30.21 852 25.16 15.9 60.5 64 9.1 48.4
08:00 1022 30.18 852 25.16 15.9 60.7 63 9 48.2
08:05 1023 30.21 852 25.16 16 60.9 63 9.2 48.5
08:10 1023 30.21 852 25.16 16.2 61.2 63 9.2 48.6
08:15 1023 30.21 852 25.16 16.5 61.7 62 9.3 48.7
08:20 1023 30.21 852 25.16 16.6 61.9 62 9.4 48.9
08:25 1023 30.21 852 25.16 16.7 62 62 9.4 49
08:30 1023 30.21 852 25.16 16.7 62 62 9.4 48.9
08:35 1023 30.21 852 25.16 16.8 62.3 62 9.5 49.1
08:40 1022 30.18 852 25.16 17 62.6 61 9.5 49.2
08:45 1023 30.21 852 25.16 17.1 62.8 61 9.6 49.2
08:50 1022 30.18 852 25.16 17.3 63.1 61 9.6 49.4
08:55 1022 30.18 852 25.16 17.4 63.2 60 9.5 49.1
09:00 1022 30.18 852 25.16 17.5 63.5 60 9.7 49.4
09:05 1023 30.21 852 25.16 17.6 63.7 60 9.8 49.6
09:10 1022 30.18 852 25.16 17.7 63.9 59 9.8 49.6
09:15 1023 30.21 852 25.16 18 64.5 58 9.7 49.4
09:20 1023 30.21 852 25.16 18.4 65.1 59 10.3 50.5
09:25 1023 30.21 852 25.16 18.1 64.6 62 10.8 51.4
09:30 1023 30.21 852 25.16 18.4 65.1 61 10.8 51.5
09:35 1023 30.21 852 25.16 18.5 65.2 60 10.5 50.9
09:40 1023 30.21 852 25.16 18.5 65.3 59 10.5 50.9
09:45 1023 30.21 852 25.16 18.8 65.8 60 10.9 51.6
09:50 1023 30.21 852 25.16 18.8 65.9 58 10.6 51
09:55 1023 30.21 852 25.16 18.4 65.1 59 10.3 50.5
10:00 1023 30.21 852 25.16 18.5 65.4 61 11 51.9
10:05 1023 30.21 852 25.16 18.3 64.9 60 10.5 50.9
10:10 1023 30.21 852 25.16 18.2 64.8 61 10.7 51.3
10:15 1023 30.21 852 25.16 19.2 66.5 56 10.4 50.7
10:20 1023 30.21 852 25.16 19.9 67.7 56 11 51.9
10:25 1022 30.18 852 25.16 19.7 67.4 57 11 51.8
10:30 1022 30.18 852 25.16 18.9 65.9 57 10.3 50.6
10:35 1022 30.18 852 25.16 19.8 67.7 56 10.8 51.4
10:40 1022 30.18 852 25.16 19.6 67.2 58 11.2 52.1
10:45 1022 30.18 852 25.16 19.6 67.2 56 10.7 51.3
10:50 1022 30.18 851 25.13 19.7 67.5 56 10.9 51.7
10:55 1022 30.18 851 25.13 19.5 67.2 56 10.7 51.3
11:00 1022 30.18 851 25.13 20.7 69.3 52 10.6 51
11:05 1022 30.18 851 25.13 21.1 69.9 54 11.5 52.7
11:10 1022 30.18 851 25.13 20.2 68.4 55 11 51.7
11:15 1022 30.18 851 25.13 21 69.8 52 11 51.7
11:20 1022 30.18 851 25.13 21.1 70 52 11 51.8
11:25 1022 30.18 851 25.13 21.4 70.6 51 11.1 52
11:30 1022 30.18 851 25.13 21.7 71 53 11.9 53.4
11:35 1022 30.18 851 25.13 21.4 70.6 52 11.2 52.2
11:40 1022 30.18 851 25.13 21.1 70 51 10.7 51.2
11:45 1022 30.18 851 25.13 21 69.8 52 11.1 51.9
11:50 1022 30.18 851 25.13 21.3 70.3 50 10.7 51.3
11:55 1022 30.18 851 25.13 22 71.5 49 11 51.8
12:00 1021 30.15 851 25.13 21.9 71.5 50 11.3 52.3
12:05 1021 30.15 851 25.13 22.3 72.1 49 11.2 52.2
12:10 1021 30.15 850 25.1 22.3 72.1 49 11.2 52.1
12:15 1021 30.15 850 25.1 23 73.4 44 10.4 50.7
12:20 1021 30.15 850 25.1 24 75.2 43 10.7 51.3
12:25 1021 30.15 850 25.1 24.3 75.7 42 10.7 51.3
12:30 1021 30.15 850 25.1 24.2 75.5 42 10.6 51.1
12:35 1021 30.15 850 25.1 23.9 75 42 10.4 50.7
12:40 1021 30.15 850 25.1 23.7 74.7 41 9.8 49.7
12:45 1021 30.15 850 25.1 24.1 75.3 40 9.8 49.6
12:50 1021 30.15 850 25.1 24 75.2 41 10.2 50.4
12:55 1021 30.15 850 25.1 24.1 75.4 41 10.3 50.5
13:00 1021 30.15 850 25.1 24.3 75.7 40 10.1 50.2
13:05 1021 30.15 850 25.1 24.8 76.6 37 9.4 48.9
13:10 1021 30.15 850 25.1 24.5 76 40 10 50
13:15 1021 30.15 850 25.1 24.5 76.1 39 9.8 49.6
13:20 1021 30.15 850 25.1 24.8 76.6 37 9.5 49.1
13:25 1021 30.15 850 25.1 24.8 76.6 39 10.2 50.4
13:30 1021 30.15 850 25.1 25 77.1 38 10.1 50.1
13:35 1020 30.12 850 25.1 25.1 77.2 36 9.3 48.7
13:40 1020 30.12 850 25.1 25.5 77.9 38 10.4 50.8
13:45 1020 30.12 850 25.1 25.7 78.2 36 9.8 49.7
13:50 1020 30.12 849 25.07 25.8 78.4 37 10.2 50.3
13:55 1020 30.12 849 25.07 25.8 78.4 35 9.5 49.2
14:00 1020 30.12 849 25.07 25.8 78.4 35 9.2 48.6
14:05 1020 30.12 849 25.07 26 78.8 36 10 50
14:10 1020 30.12 849 25.07 25.9 78.7 36 9.8 49.7
14:15 1020 30.12 849 25.07 26.3 79.3 34 9.6 49.2
14:20 1020 30.12 849 25.07 26.4 79.5 35 10 50
14:25 1020 30.12 849 25.07 26.3 79.4 35 9.9 49.9
14:30 1020 30.12 849 25.07 26.9 80.4 34 10.1 50.2
14:35 1020 30.12 849 25.07 27.1 80.7 34 10.3 50.5
14:40 1020 30.12 849 25.07 27 80.6 33 9.9 49.7
14:45 1020 30.12 849 25.07 27.5 81.4 32 9.8 49.6
14:50 1020 30.12 849 25.07 27.1 80.8 32 9.4 48.9
14:55 1020 30.12 849 25.07 27.3 81.2 32 9.4 48.8
15:00 1019 30.09 849 25.07 27 80.6 33 9.8 49.6
15:05 1019 30.09 849 25.07 26.8 80.3 33 9.5 49.1
15:10 1019 30.09 849 25.07 27.5 81.4 31 9.1 48.5
15:15 1019 30.09 848 25.04 27.6 81.8 31 9.3 48.8
15:20 1019 30.09 848 25.04 27.9 82.2 32 9.8 49.7
15:25 1019 30.09 848 25.04 27.8 82.1 31 9.3 48.7
15:30 1019 30.09 848 25.04 27.8 82.1 31 9.2 48.6
15:35 1019 30.09 848 25.04 28.2 82.8 30 9.4 49
15:40 1019 30.09 848 25.04 28.5 83.2 29 9.2 48.6
15:45 1019 30.09 848 25.04 28.8 83.9 29 9.1 48.4
15:50 1019 30.09 848 25.04 28.3 82.9 30 9.5 49
15:55 1018 30.06 848 25.04 28.1 82.5 29 8.9 47.9
16:00 1018 30.06 848 25.04 28.6 83.4 28 8.7 47.6
16:05 1018 30.06 847 25.01 28.3 83 29 8.9 48
16:10 1018 30.06 847 25.01 27.8 82 31 9.2 48.5
16:15 1018 30.06 847 25.01 27.1 80.7 32 9.2 48.5
16:20 1018 30.06 847 25.01 27 80.7 32 9.2 48.5
16:25 1018 30.06 847 25.01 26.9 80.4 33 9.4 48.9
16:30 1018 30.06 847 25.01 26.8 80.2 33 9.6 49.3
16:35 1018 30.06 847 25.01 26.7 80 33 9.2 48.5
16:40 1018 30.06 847 25.01 26.6 79.9 33 9.3 48.8
16:45 1018 30.06 847 25.01 26.5 79.7 32 8.9 48
16:50 1018 30.06 847 25.01 26.3 79.4 33 8.9 48
16:55 1018 30.06 847 25.01 26.3 79.3 33 9.1 48.3
17:00 1018 30.06 847 25.01 26.4 79.4 33 9.1 48.4
17:05 1018 30.06 847 25.01 26.3 79.3 34 9.3 48.8
17:10 1018 30.06 847 25.01 26.2 79.1 33 8.8 47.8
17:15 1018 30.06 847 25.01 26.2 79.1 32 8.5 47.3
17:20 1018 30.06 847 25.01 26.2 79.1 32 8.7 47.6
17:25 1018 30.06 847 25.01 26.2 79.2 33 8.9 48.1
17:30 1018 30.06 847 25.01 26 78.9 34 9.2 48.5
17:35 1018 30.06 848 25.04 25.9 78.6 34 9.1 48.4
17:40 1018 30.06 848 25.04 25.7 78.3 35 9.4 48.9
17:45 1019 30.09 848 25.04 25.7 78.2 34 8.8 47.8
17:50 1019 30.09 848 25.04 25.7 78.2 33 8.4 47.2
17:55 1019 30.09 848 25.04 25.7 78.3 33 8.4 47.2
18:00 1019 30.09 848 25.04 25.7 78.2 33 8.6 47.5
18:05 1019 30.09 848 25.04 25.6 78.1 33 8.5 47.4
18:10 1019 30.09 848 25.04 25.6 78 33 8.5 47.2
18:15 1019 30.09 848 25.04 25.4 77.8 34 8.6 47.4
18:20 1019 30.09 848 25.04 25.3 77.5 36 9.3 48.7
18:25 1019 30.09 849 25.07 24.8 76.6 33 7.7 45.9
18:30 1019 30.09 849 25.07 24.6 76.3 32 6.9 44.5
18:35 1020 30.12 849 25.07 24.1 75.4 34 7.5 45.5
18:40 1020 30.12 849 25.07 23.7 74.6 36 7.8 46
18:45 1020 30.12 849 25.07 23.2 73.7 39 8.8 47.9
18:50 1020 30.12 849 25.07 22.2 71.9 43 9.1 48.4
18:55 1020 30.12 849 25.07 21.7 71.1 43 8.7 47.7
19:00 1020 30.12 849 25.07 21.5 70.8 43 8.6 47.4
19:05 1020 30.12 849 25.07 21.5 70.7 45 9.1 48.4
19:10 1020 30.12 849 25.07 21.4 70.6 43 8.5 47.4
19:15 1019 30.09 849 25.07 21.5 70.8 42 8.4 47.2
19:20 1019 30.09 849 25.07 21.5 70.8 42 8.4 47.1
19:25 1019 30.09 849 25.07 21.6 71 44 9 48.2
19:30 1019 30.09 849 25.07 21.7 71 44 8.9 48.1
19:35 1019 30.09 849 25.07 21.7 71 45 9.2 48.6
19:40 1019 30.09 848 25.04 21.2 70.2 49 10.3 50.5
19:45 1019 30.09 848 25.04 20.3 68.5 54 10.8 51.5
19:50 1019 30.09 848 25.04 19.2 66.6 59 11.2 52.1
19:55 1019 30.09 848 25.04 18.7 65.6 58 10.5 50.8
20:00 1019 30.09 848 25.04 18.7 65.7 58 10.5 50.9
20:05 1019 30.09 848 25.04 18.9 66 56 10.1 50.1
20:10 1020 30.12 849 25.07 18.8 65.9 59 10.8 51.5
20:15 1020 30.12 849 25.07 18.7 65.6 58 10.4 50.8
20:20 1020 30.12 849 25.07 19 66.2 56 10.2 50.4
20:25 1020 30.12 849 25.07 19.3 66.7 54 9.8 49.6
20:30 1020 30.12 850 25.1 19.5 67.2 54 10 50
20:35 1020 30.12 850 25.1 19.6 67.2 52 9.7 49.4
20:40 1020 30.12 850 25.1 19.6 67.2 54 10.2 50.4
20:45 1020 30.12 850 25.1 19.4 66.9 56 10.5 50.9
20:50 1021 30.15 850 25.1 19.4 66.8 53 9.5 49.2
20:55 1021 30.15 850 25.1 19.5 67 51 9.3 48.8
21:00 1021 30.15 850 25.1 19.8 67.7 47 8.3 46.9
21:05 1021 30.15 850 25.1 20.3 68.5 45 8.2 46.8
21:10 1021 30.15 850 25.1 20.3 68.6 46 8.6 47.5
21:15 1021 30.15 850 25.1 20.2 68.4 47 8.7 47.7
21:20 1021 30.15 850 25.1 20.2 68.3 48 8.9 47.9
21:25 1021 30.15 850 25.1 19.7 67.5 57 11.1 52
21:30 1021 30.15 850 25.1 18.7 65.6 60 10.9 51.6
21:35 1021 30.15 850 25.1 18.3 64.9 61 10.7 51.3
21:40 1021 30.15 850 25.1 18.5 65.3 56 9.6 49.4
21:45 1021 30.15 850 25.1 18.9 66 55 9.8 49.6
21:50 1021 30.15 851 25.13 19 66.3 55 10 50
21:55 1021 30.15 851 25.13 19.1 66.3 56 10.3 50.6
22:00 1021 30.15 851 25.13 19.1 66.4 54 9.8 49.6
22:05 1022 30.18 851 25.13 19.1 66.4 56 10.2 50.3
22:10 1022 30.18 851 25.13 18.9 66 55 9.8 49.6
22:15 1022 30.18 851 25.13 18.8 65.8 61 11.2 52.2
22:20 1021 30.15 851 25.13 18.8 65.8 56 10 50
22:25 1022 30.18 851 25.13 18.9 66.1 54 9.6 49.3
22:30 1021 30.15 851 25.13 18.9 66 57 10.3 50.5
22:35 1021 30.15 851 25.13 18.4 65.1 59 10.2 50.4
22:40 1021 30.15 850 25.1 17.7 63.8 62 10.4 50.7
22:45 1021 30.15 850 25.1 17.5 63.4 61 9.8 49.7
22:50 1021 30.15 850 25.1 17.4 63.3 64 10.5 50.9
22:55 1020 30.12 849 25.07 17 62.7 63 9.9 49.9
23:00 1020 30.12 849 25.07 17 62.7 70 11.6 53
23:05 1020 30.12 849 25.07 16.6 61.9 70 11.2 52.2
23:10 1020 30.12 849 25.07 16.3 61.3 71 11.1 51.9
23:15 1020 30.12 849 25.07 16.3 61.3 73 11.6 52.8
23:20 1020 30.12 849 25.07 16.1 61 73 11.2 52.2
23:25 1020 30.12 849 25.07 16.1 61 72 11.1 52
23:30 1020 30.12 849 25.07 16.4 61.4 68 10.6 51.1
23:35 1020 30.12 849 25.07 16.6 61.9 68 10.7 51.3
23:40 1020 30.12 849 25.07 16.6 61.8 67 10.6 51
23:45 1020 30.12 849 25.07 16.6 61.9 68 10.6 51.1
23:50 1020 30.12 849 25.07 16.7 62 66 10.4 50.7
23:55 1020 30.12 849 25.07 16.8 62.3 65 10.2 50.4
24:00 1020 30.12 849 25.07 16.9 62.4 64 10.2 50.4